createdAt,value
2019-04-30T00:01:19.513Z,4.55
2019-04-30T00:03:59.410Z,4.03
2019-04-30T00:06:34.487Z,4.80
2019-04-30T00:09:01.370Z,3.63
2019-04-30T00:11:31.600Z,2.83
2019-04-30T00:14:00.193Z,5.12
2019-04-30T00:16:31.110Z,3.42
2019-04-30T00:19:00.932Z,3.92
2019-04-30T00:21:29.509Z,4.42
2019-04-30T00:24:00.809Z,3.30
2019-04-30T00:26:28.355Z,3.67
2019-04-30T00:28:57.116Z,3.30
2019-04-30T00:31:27.419Z,4.60
2019-04-30T00:33:57.869Z,4.65
2019-04-30T00:36:29.060Z,4.28
2019-04-30T00:38:57.055Z,4.25
2019-04-30T00:41:25.692Z,3.22
2019-04-30T00:43:55.146Z,4.28
2019-04-30T00:46:27.287Z,4.12
2019-04-30T00:48:56.792Z,3.52
2019-04-30T00:51:26.235Z,2.80
2019-04-30T00:53:55.848Z,2.98
2019-04-30T00:56:28.081Z,3.45
2019-04-30T00:58:55.418Z,3.25
2019-04-30T01:02:02.276Z,2.80
2019-04-30T01:04:48.735Z,4.40
2019-04-30T01:07:17.330Z,2.33
2019-04-30T01:09:49.517Z,3.33
2019-04-30T01:12:19.155Z,3.87
2019-04-30T01:14:46.671Z,2.83
2019-04-30T01:17:15.441Z,3.55
2019-04-30T01:19:45.914Z,2.85
2019-04-30T01:22:14.271Z,5.87
2019-04-30T01:24:43.166Z,4.10
2019-04-30T01:27:13.492Z,3.25
2019-04-30T01:29:44.418Z,4.75
2019-04-30T01:32:17.436Z,3.90
2019-04-30T01:34:44.351Z,3.98
2019-04-30T01:37:13.456Z,2.72
2019-04-30T01:39:42.047Z,3.12
2019-04-30T01:42:11.486Z,3.47
2019-04-30T01:44:43.478Z,4.70
2019-04-30T01:47:10.612Z,3.37
2019-04-30T01:49:42.864Z,4.55
2019-04-30T01:52:09.621Z,4.03
2019-04-30T01:54:39.207Z,4.05
2019-04-30T01:57:25.380Z,5.17
2019-04-30T02:00:19.536Z,3.02
2019-04-30T02:02:49.517Z,2.70
2019-04-30T02:05:18.896Z,3.27
2019-04-30T02:07:48.647Z,4.15
2019-04-30T02:10:18.653Z,4.75
2019-04-30T02:12:49.183Z,4.85
2019-04-30T02:15:19.215Z,4.05
2019-04-30T02:17:50.202Z,4.35
2019-04-30T02:20:18.575Z,3.58
2019-04-30T02:22:48.616Z,5.33
2019-04-30T02:25:17.248Z,3.77
2019-04-30T02:27:45.902Z,3.62
2019-04-30T02:30:14.501Z,3.55
2019-04-30T02:32:43.245Z,5.20
2019-04-30T02:35:19.506Z,2.87
2019-04-30T02:38:06.157Z,3.55
2019-04-30T02:40:36.030Z,3.12
2019-04-30T02:43:05.073Z,4.30
2019-04-30T02:45:35.154Z,3.80
2019-04-30T02:48:04.120Z,3.50
2019-04-30T02:50:34.073Z,3.37
2019-04-30T02:53:04.161Z,4.03
2019-04-30T02:55:42.584Z,3.22
2019-04-30T02:58:11.338Z,4.53
2019-04-30T03:00:39.933Z,3.90
2019-04-30T03:03:10.236Z,5.10
2019-04-30T03:05:39.221Z,3.77
2019-04-30T03:08:09.631Z,4.17
2019-04-30T03:10:40.227Z,3.10
2019-04-30T03:13:09.849Z,7.35
2019-04-30T03:15:39.409Z,3.35
2019-04-30T03:18:22.991Z,3.80
2019-04-30T03:20:59.887Z,3.40
2019-04-30T03:23:29.375Z,3.77
2019-04-30T03:25:59.715Z,5.20
2019-04-30T03:28:30.086Z,5.45
2019-04-30T03:31:04.059Z,4.75
2019-04-30T03:33:32.628Z,3.30
2019-04-30T03:36:02.192Z,4.53
2019-04-30T03:38:30.154Z,6.70
2019-04-30T03:41:00.264Z,4.90
2019-04-30T03:43:30.155Z,4.70
2019-04-30T03:45:59.325Z,6.33
2019-04-30T03:48:29.755Z,6.35
2019-04-30T03:51:00.902Z,4.80
2019-04-30T03:53:29.864Z,6.35
2019-04-30T03:56:01.269Z,4.30
2019-04-30T03:58:29.327Z,9.85
2019-04-30T04:01:05.951Z,8.33
2019-04-30T04:03:37.081Z,5.58
2019-04-30T04:06:21.463Z,4.55
2019-04-30T04:08:57.144Z,5.80
2019-04-30T04:11:29.803Z,5.35
2019-04-30T04:13:59.678Z,7.90
2019-04-30T04:16:31.781Z,6.80
2019-04-30T04:18:59.862Z,4.53
2019-04-30T04:21:29.953Z,7.12
2019-04-30T04:24:00.217Z,6.58
2019-04-30T04:26:29.836Z,6.85
2019-04-30T04:28:59.446Z,5.42
2019-04-30T04:31:29.846Z,7.67
2019-04-30T04:34:00.111Z,6.45
2019-04-30T04:36:30.140Z,7.85
2019-04-30T04:39:00.204Z,7.15
2019-04-30T04:41:29.619Z,9.50
2019-04-30T04:44:00.110Z,6.65
2019-04-30T04:46:30.779Z,8.75
2019-04-30T04:48:59.656Z,9.35
2019-04-30T04:51:38.040Z,7.20
2019-04-30T04:54:00.192Z,7.00
2019-04-30T04:56:30.483Z,7.65
2019-04-30T04:59:00.251Z,7.40
2019-04-30T05:01:29.035Z,6.20
2019-04-30T05:03:59.128Z,6.37
2019-04-30T05:06:29.809Z,6.17
2019-04-30T05:08:59.198Z,7.25
2019-04-30T05:11:31.390Z,6.12
2019-04-30T05:13:58.980Z,6.25
2019-04-30T05:16:28.938Z,5.67
2019-04-30T05:18:58.621Z,6.05
2019-04-30T05:21:39.659Z,7.72
2019-04-30T05:23:59.083Z,7.17
2019-04-30T05:26:28.717Z,7.20
2019-04-30T05:28:59.129Z,6.28
2019-04-30T05:31:28.955Z,6.05
2019-04-30T05:33:58.736Z,6.37
2019-04-30T05:36:29.060Z,7.42
2019-04-30T05:38:58.759Z,7.25
2019-04-30T05:41:28.975Z,7.08
2019-04-30T05:43:59.158Z,7.20
2019-04-30T05:46:29.643Z,8.28
2019-04-30T05:48:59.402Z,7.15
2019-04-30T05:51:28.887Z,7.10
2019-04-30T05:53:59.256Z,8.55
2019-04-30T05:56:30.161Z,10.55
2019-04-30T05:58:59.331Z,7.33
2019-04-30T06:01:29.542Z,9.90
2019-04-30T06:03:59.463Z,8.63
2019-04-30T06:06:29.059Z,8.65
2019-04-30T06:09:06.676Z,8.48
2019-04-30T06:12:11.546Z,9.95
2019-04-30T06:14:49.305Z,9.65
2019-04-30T06:17:19.549Z,9.93
2019-04-30T06:19:51.439Z,10.53
2019-04-30T06:22:19.656Z,9.98
2019-04-30T06:24:49.535Z,11.30
2019-04-30T06:27:19.158Z,10.98
2019-04-30T06:29:49.001Z,10.65
2019-04-30T06:32:18.658Z,11.88
2019-04-30T06:34:49.727Z,10.93
2019-04-30T06:37:19.455Z,12.60
2019-04-30T06:39:50.012Z,10.93
2019-04-30T06:42:19.614Z,12.98
2019-04-30T06:44:49.449Z,14.18
2019-04-30T06:47:20.125Z,14.15
2019-04-30T06:49:48.959Z,13.68
2019-04-30T06:52:21.405Z,11.85
2019-04-30T06:54:49.862Z,12.45
2019-04-30T06:57:19.806Z,14.40
2019-04-30T06:59:51.180Z,14.70
2019-04-30T07:02:19.664Z,13.20
2019-04-30T07:04:49.140Z,14.85
2019-04-30T07:07:22.674Z,14.58
2019-04-30T07:10:02.727Z,16.45
2019-04-30T07:12:46.307Z,16.02
2019-04-30T07:15:15.210Z,16.65
2019-04-30T07:17:43.847Z,13.85
2019-04-30T07:20:12.485Z,17.35
2019-04-30T07:22:49.806Z,15.20
2019-04-30T07:25:11.470Z,18.40
2019-04-30T07:27:40.273Z,14.28
2019-04-30T07:30:09.942Z,13.75
2019-04-30T07:32:38.908Z,16.90
2019-04-30T07:35:09.387Z,17.07
2019-04-30T07:37:39.160Z,16.70
2019-04-30T07:40:09.088Z,16.40
2019-04-30T07:42:44.480Z,18.60
2019-04-30T07:45:09.688Z,12.58
2019-04-30T07:47:39.578Z,14.85
2019-04-30T07:50:10.621Z,15.98
2019-04-30T07:52:57.716Z,16.35
2019-04-30T07:55:10.186Z,11.97
2019-04-30T07:57:40.415Z,14.65
2019-04-30T08:00:09.730Z,16.62
2019-04-30T08:02:43.726Z,14.20
2019-04-30T08:05:19.796Z,14.50
2019-04-30T08:07:49.081Z,13.05
2019-04-30T08:10:18.948Z,15.80
2019-04-30T08:12:50.139Z,11.90
2019-04-30T08:15:19.782Z,13.75
2019-04-30T08:18:01.863Z,12.33
2019-04-30T08:20:19.650Z,11.95
2019-04-30T08:22:49.387Z,14.47
2019-04-30T08:25:19.933Z,12.85
2019-04-30T08:27:49.293Z,11.73
2019-04-30T08:30:26.313Z,13.43
2019-04-30T08:32:49.947Z,10.72
2019-04-30T08:35:19.744Z,14.68
2019-04-30T08:37:49.750Z,15.45
2019-04-30T08:40:19.092Z,10.95
2019-04-30T08:42:49.621Z,11.43
2019-04-30T08:45:19.707Z,15.45
2019-04-30T08:47:49.343Z,14.10
2019-04-30T08:50:20.115Z,11.30
2019-04-30T08:52:49.833Z,12.25
2019-04-30T08:55:22.044Z,10.45
2019-04-30T08:57:50.010Z,13.05
2019-04-30T09:00:19.551Z,11.03
2019-04-30T09:02:49.204Z,12.63
2019-04-30T09:05:30.593Z,12.65
2019-04-30T09:07:59.804Z,12.63
2019-04-30T09:10:29.435Z,12.98
2019-04-30T09:12:59.803Z,14.75
2019-04-30T09:15:29.101Z,12.80
2019-04-30T09:18:03.858Z,10.98
2019-04-30T09:20:29.285Z,12.90
2019-04-30T09:22:59.559Z,11.78
2019-04-30T09:25:28.805Z,13.38
2019-04-30T09:27:58.826Z,11.63
2019-04-30T09:30:29.796Z,12.18
2019-04-30T09:32:59.517Z,13.05
2019-04-30T09:35:31.850Z,12.35
2019-04-30T09:38:01.432Z,12.30
2019-04-30T09:40:32.191Z,12.00
2019-04-30T09:43:00.432Z,15.95
2019-04-30T09:45:29.279Z,10.95
2019-04-30T09:47:59.249Z,13.22
2019-04-30T09:50:28.938Z,12.15
2019-04-30T09:53:00.344Z,12.33
2019-04-30T09:55:29.052Z,12.07
2019-04-30T09:57:58.863Z,14.63
2019-04-30T10:00:29.491Z,13.10
2019-04-30T10:02:59.748Z,12.63
2019-04-30T10:05:29.261Z,12.18
2019-04-30T10:07:59.413Z,14.40
2019-04-30T10:10:33.762Z,11.95
2019-04-30T10:13:02.436Z,11.85
2019-04-30T10:15:38.477Z,14.65
2019-04-30T10:18:07.345Z,12.88
2019-04-30T10:20:39.891Z,11.85
2019-04-30T10:23:09.651Z,13.45
2019-04-30T10:25:38.376Z,11.85
2019-04-30T10:28:07.161Z,11.75
2019-04-30T10:30:36.023Z,12.70
2019-04-30T10:33:05.078Z,13.50
2019-04-30T10:35:34.127Z,11.75
2019-04-30T10:38:02.896Z,14.47
2019-04-30T10:40:31.561Z,14.05
2019-04-30T10:43:00.178Z,15.50
2019-04-30T10:45:29.292Z,10.60
2019-04-30T10:47:59.229Z,12.13
2019-04-30T10:50:27.989Z,13.85
2019-04-30T10:52:56.666Z,13.38
2019-04-30T10:55:25.229Z,13.78
2019-04-30T10:57:54.257Z,14.45
2019-04-30T11:00:28.666Z,13.55
2019-04-30T11:02:59.240Z,13.28
2019-04-30T11:05:29.261Z,16.07
2019-04-30T11:07:59.398Z,13.83
2019-04-30T11:10:29.005Z,16.55
2019-04-30T11:12:57.583Z,14.85
2019-04-30T11:15:26.185Z,12.47
2019-04-30T11:17:55.286Z,10.70
2019-04-30T11:20:25.139Z,15.20
2019-04-30T11:22:54.901Z,12.47
2019-04-30T11:25:24.026Z,12.63
2019-04-30T11:27:53.490Z,19.65
2019-04-30T11:30:24.397Z,16.67
2019-04-30T11:32:53.366Z,12.90
2019-04-30T11:35:22.219Z,11.20
2019-04-30T11:37:51.157Z,13.13
2019-04-30T11:40:31.590Z,13.78
2019-04-30T11:42:55.491Z,12.85
2019-04-30T11:45:25.623Z,12.53
2019-04-30T11:47:54.283Z,15.83
2019-04-30T11:50:23.966Z,14.38
2019-04-30T11:52:52.507Z,13.32
2019-04-30T11:55:21.158Z,14.58
2019-04-30T11:57:49.817Z,14.90
2019-04-30T12:00:25.230Z,12.68
2019-04-30T12:02:53.911Z,14.93
2019-04-30T12:05:22.479Z,14.47
2019-04-30T12:08:15.951Z,17.15
2019-04-30T12:11:15.266Z,13.00
2019-04-30T12:13:43.105Z,14.15
2019-04-30T12:16:11.649Z,12.35
2019-04-30T12:18:40.267Z,14.25
2019-04-30T12:21:08.908Z,12.93
2019-04-30T12:23:37.610Z,16.15
2019-04-30T12:26:06.270Z,13.80
2019-04-30T12:28:34.867Z,12.37
2019-04-30T12:31:05.791Z,15.65
2019-04-30T12:33:33.668Z,13.20
2019-04-30T12:36:02.218Z,17.00
2019-04-30T12:38:30.809Z,14.33
2019-04-30T12:40:59.457Z,19.73
2019-04-30T12:43:28.124Z,22.25
2019-04-30T12:46:04.838Z,23.05
2019-04-30T12:48:39.691Z,21.37
2019-04-30T12:51:18.509Z,26.00
2019-04-30T12:53:51.632Z,25.80
2019-04-30T12:56:42.420Z,22.80
2019-04-30T12:59:11.128Z,21.33
2019-04-30T13:01:40.005Z,26.10
2019-04-30T13:04:09.835Z,23.07
2019-04-30T13:06:39.186Z,21.82
2019-04-30T13:09:10.823Z,27.25
2019-04-30T13:11:40.523Z,25.80
2019-04-30T13:14:11.059Z,21.97
2019-04-30T13:16:40.095Z,25.10
2019-04-30T13:19:09.290Z,23.95
2019-04-30T13:21:39.506Z,25.55
2019-04-30T13:24:08.385Z,27.05
2019-04-30T13:26:37.051Z,28.80
2019-04-30T13:29:10.302Z,29.60
2019-04-30T13:31:40.275Z,29.07
2019-04-30T13:34:37.133Z,29.80
2019-04-30T13:37:05.876Z,25.27
2019-04-30T13:39:49.864Z,27.60
2019-04-30T13:42:20.098Z,25.97
2019-04-30T13:44:49.379Z,27.10
2019-04-30T13:47:19.206Z,28.02
2019-04-30T13:49:49.505Z,29.63
2019-04-30T13:52:18.139Z,25.57
2019-04-30T13:54:46.823Z,26.25
2019-04-30T13:57:15.532Z,26.35
2019-04-30T13:59:44.237Z,27.70
2019-04-30T14:02:12.841Z,27.30
2019-04-30T14:05:00.529Z,28.23
2019-04-30T14:07:54.118Z,29.60
2019-04-30T14:10:22.744Z,27.55
2019-04-30T14:12:54.420Z,28.07
2019-04-30T14:15:23.051Z,28.52
2019-04-30T14:17:51.621Z,28.67
2019-04-30T14:20:20.277Z,28.83
2019-04-30T14:22:48.829Z,25.92
2019-04-30T14:25:17.444Z,25.52
2019-04-30T14:27:52.252Z,26.68
2019-04-30T14:30:19.172Z,29.67
2019-04-30T14:32:50.552Z,26.35
2019-04-30T14:35:18.734Z,24.57
2019-04-30T14:37:49.451Z,28.17
2019-04-30T14:40:20.129Z,25.17
2019-04-30T14:43:06.169Z,26.40
2019-04-30T14:45:43.163Z,25.23
2019-04-30T14:48:23.156Z,25.95
2019-04-30T14:50:51.055Z,26.10
2019-04-30T14:53:44.646Z,26.70
2019-04-30T14:56:29.386Z,30.35
2019-04-30T14:59:15.399Z,26.97
2019-04-30T15:01:53.938Z,28.27
2019-04-30T15:04:22.651Z,26.25
2019-04-30T15:06:51.255Z,26.23
2019-04-30T15:09:19.880Z,23.62
2019-04-30T15:11:48.745Z,28.32
2019-04-30T15:14:17.456Z,23.60
2019-04-30T15:16:46.069Z,25.92
2019-04-30T15:19:14.714Z,27.32
2019-04-30T15:21:43.266Z,26.23
2019-04-30T15:24:25.393Z,27.77
2019-04-30T15:26:57.847Z,24.18
2019-04-30T15:29:24.381Z,24.47
2019-04-30T15:31:53.038Z,24.12
2019-04-30T15:34:21.777Z,25.50
2019-04-30T15:36:50.421Z,24.65
2019-04-30T15:39:39.486Z,25.02
2019-04-30T15:42:08.834Z,23.62
2019-04-30T15:44:43.273Z,22.35
2019-04-30T15:47:09.230Z,23.38
2019-04-30T15:49:38.086Z,27.30
2019-04-30T15:52:06.679Z,24.77
2019-04-30T15:54:35.408Z,24.05
2019-04-30T15:57:04.046Z,27.10
2019-04-30T15:59:39.482Z,22.35
2019-04-30T16:02:15.421Z,24.40
2019-04-30T16:04:56.688Z,23.27
2019-04-30T16:07:25.202Z,23.60
2019-04-30T16:10:08.915Z,26.33
2019-04-30T16:12:48.717Z,23.27
2019-04-30T16:15:18.541Z,22.62
2019-04-30T16:17:49.258Z,21.23
2019-04-30T16:20:18.169Z,20.52
2019-04-30T16:22:46.709Z,21.00
2019-04-30T16:25:15.402Z,22.37
2019-04-30T16:27:44.251Z,21.87
2019-04-30T16:30:12.927Z,17.95
2019-04-30T16:32:41.614Z,21.42
2019-04-30T16:35:10.500Z,24.63
2019-04-30T16:37:39.056Z,22.32
2019-04-30T16:40:08.278Z,25.02
2019-04-30T16:42:38.971Z,25.77
2019-04-30T16:45:09.309Z,25.20
2019-04-30T16:47:38.049Z,24.75
2019-04-30T16:50:08.831Z,24.55
2019-04-30T16:52:38.986Z,25.25
2019-04-30T16:55:08.226Z,26.77
2019-04-30T16:57:37.178Z,26.12
2019-04-30T17:00:06.217Z,27.32
2019-04-30T17:02:39.302Z,24.75
2019-04-30T17:05:16.857Z,27.30
2019-04-30T17:08:01.785Z,25.75
2019-04-30T17:10:50.467Z,24.85
2019-04-30T17:13:31.257Z,27.67
2019-04-30T17:16:07.048Z,23.92
2019-04-30T17:18:35.661Z,25.55
2019-04-30T17:21:04.303Z,26.52
2019-04-30T17:23:34.018Z,27.02
2019-04-30T17:26:02.677Z,26.70
2019-04-30T17:28:31.271Z,25.55
2019-04-30T17:30:59.895Z,24.35
2019-04-30T17:33:28.647Z,25.05
2019-04-30T17:35:57.304Z,24.25
2019-04-30T17:38:26.224Z,24.43
2019-04-30T17:40:55.026Z,28.52
2019-04-30T17:43:24.497Z,25.62
2019-04-30T17:45:54.693Z,28.77
2019-04-30T17:48:23.388Z,29.05
2019-04-30T17:50:52.038Z,27.82
2019-04-30T17:53:20.688Z,31.62
2019-04-30T17:55:49.457Z,30.35
2019-04-30T17:58:20.549Z,30.62
2019-04-30T18:00:52.392Z,31.82
2019-04-30T18:03:20.988Z,28.70
2019-04-30T18:05:49.785Z,27.25
2019-04-30T18:08:18.428Z,30.08
2019-04-30T18:10:47.141Z,31.52
2019-04-30T18:13:15.835Z,29.32
2019-04-30T18:15:44.515Z,26.85
2019-04-30T18:18:21.491Z,27.95
2019-04-30T18:21:09.203Z,27.17
2019-04-30T18:23:59.977Z,24.52
2019-04-30T18:26:30.110Z,26.25
2019-04-30T18:28:58.876Z,25.95
2019-04-30T18:31:29.427Z,26.30
2019-04-30T18:33:59.324Z,26.25
2019-04-30T18:36:29.393Z,21.77
2019-04-30T18:38:59.034Z,31.02
2019-04-30T18:41:27.984Z,23.75
2019-04-30T18:43:59.577Z,23.95
2019-04-30T18:46:29.233Z,25.23
2019-04-30T18:48:59.229Z,24.23
2019-04-30T18:51:36.525Z,23.42
2019-04-30T18:53:58.429Z,24.18
2019-04-30T18:56:28.927Z,25.12
2019-04-30T18:58:58.682Z,24.05
2019-04-30T19:01:27.336Z,24.05
2019-04-30T19:03:55.992Z,23.20
2019-04-30T19:06:26.155Z,25.27
2019-04-30T19:09:02.081Z,26.42
2019-04-30T19:11:36.514Z,22.85
2019-04-30T19:14:16.872Z,23.85
2019-04-30T19:17:03.073Z,30.48
2019-04-30T19:19:43.400Z,25.88
2019-04-30T19:22:12.103Z,30.77
2019-04-30T19:24:53.517Z,27.77
2019-04-30T19:27:11.638Z,28.75
2019-04-30T19:29:40.302Z,30.35
2019-04-30T19:32:09.524Z,30.23
2019-04-30T19:34:38.993Z,28.35
2019-04-30T19:37:08.674Z,26.50
2019-04-30T19:39:39.121Z,27.70
2019-04-30T19:42:09.070Z,31.33
2019-04-30T19:44:39.436Z,29.05
2019-04-30T19:47:09.291Z,27.40
2019-04-30T19:49:38.983Z,33.00
2019-04-30T19:52:11.117Z,31.55
2019-04-30T19:54:39.312Z,31.93
2019-04-30T19:57:10.125Z,31.25
2019-04-30T19:59:39.709Z,26.73
2019-04-30T20:02:08.292Z,30.90
2019-04-30T20:04:39.749Z,30.62
2019-04-30T20:07:08.835Z,29.27
2019-04-30T20:09:37.776Z,30.70
2019-04-30T20:12:06.345Z,28.80
2019-04-30T20:14:35.050Z,29.42
2019-04-30T20:17:03.668Z,32.38
2019-04-30T20:19:32.318Z,33.05
2019-04-30T20:22:01.075Z,33.50
2019-04-30T20:24:29.855Z,30.32
2019-04-30T20:27:07.125Z,31.17
2019-04-30T20:29:29.126Z,28.47
2019-04-30T20:31:58.996Z,32.80
2019-04-30T20:34:29.250Z,34.23
2019-04-30T20:36:58.331Z,32.50
2019-04-30T20:39:36.850Z,34.80
2019-04-30T20:42:05.557Z,33.25
2019-04-30T20:44:34.216Z,37.95
2019-04-30T20:47:02.904Z,39.30
2019-04-30T20:49:33.773Z,41.10
2019-04-30T20:52:02.632Z,42.10
2019-04-30T20:54:31.317Z,43.30
2019-04-30T20:57:00.238Z,36.30
2019-04-30T20:59:29.224Z,43.20
2019-04-30T21:01:57.960Z,38.95
2019-04-30T21:04:26.690Z,42.05
2019-04-30T21:06:55.826Z,49.30
2019-04-30T21:09:24.691Z,55.65
2019-04-30T21:11:53.620Z,54.77
2019-04-30T21:14:22.294Z,56.18
2019-04-30T21:16:50.997Z,54.98
2019-04-30T21:19:19.746Z,55.08
2019-04-30T21:21:49.713Z,56.35
2019-04-30T21:24:18.470Z,55.85
2019-04-30T21:26:47.179Z,57.20
2019-04-30T21:29:16.203Z,55.80
2019-04-30T21:31:52.933Z,56.13
2019-04-30T21:34:31.565Z,55.08
2019-04-30T21:37:00.279Z,57.33
2019-04-30T21:39:28.850Z,52.15
2019-04-30T21:41:59.326Z,55.58
2019-04-30T21:44:27.809Z,49.15
2019-04-30T21:46:56.453Z,52.43
2019-04-30T21:49:25.072Z,52.23
2019-04-30T21:51:53.680Z,52.67
2019-04-30T21:54:25.168Z,48.65
2019-04-30T21:56:53.823Z,43.92
2019-04-30T21:59:24.607Z,49.27
2019-04-30T22:01:52.734Z,46.88
2019-04-30T22:04:23.594Z,47.73
2019-04-30T22:06:52.101Z,47.58
2019-04-30T22:09:21.207Z,47.10
2019-04-30T22:11:49.922Z,46.90
2019-04-30T22:14:18.667Z,43.60
2019-04-30T22:16:49.331Z,43.23
2019-04-30T22:19:17.795Z,44.20
2019-04-30T22:21:46.629Z,41.88
2019-04-30T22:24:15.311Z,40.95
2019-04-30T22:26:43.998Z,47.27
2019-04-30T22:29:12.733Z,40.78
2019-04-30T22:31:41.432Z,40.63
2019-04-30T22:34:10.084Z,39.18
2019-04-30T22:36:44.645Z,40.60
2019-04-30T22:39:32.359Z,38.05
2019-04-30T22:42:03.174Z,43.13
2019-04-30T22:44:31.929Z,37.48
2019-04-30T22:47:00.752Z,36.05
2019-04-30T22:49:29.481Z,37.85
2019-04-30T22:51:58.158Z,35.65
2019-04-30T22:54:26.846Z,33.42
2019-04-30T22:56:55.540Z,39.33
2019-04-30T22:59:24.257Z,34.98
2019-04-30T23:02:02.122Z,32.70
2019-04-30T23:04:37.624Z,31.82
2019-04-30T23:07:06.445Z,33.65
2019-04-30T23:09:36.058Z,32.53
2019-04-30T23:12:04.973Z,31.77
2019-04-30T23:14:33.666Z,29.15
2019-04-30T23:17:02.343Z,27.77
2019-04-30T23:19:31.006Z,27.37
2019-04-30T23:21:59.689Z,29.32
2019-04-30T23:24:28.434Z,27.32
2019-04-30T23:26:57.190Z,27.10
2019-04-30T23:29:25.859Z,28.25
2019-04-30T23:31:54.607Z,28.98
2019-04-30T23:34:23.350Z,26.55
2019-04-30T23:36:52.143Z,28.55
2019-04-30T23:39:20.822Z,30.23
2019-04-30T23:41:49.521Z,26.48
2019-04-30T23:44:18.253Z,27.77
2019-04-30T23:46:47.098Z,26.95
2019-04-30T23:49:15.808Z,30.48
2019-04-30T23:51:44.499Z,25.40
2019-04-30T23:54:13.235Z,28.35
2019-04-30T23:56:41.886Z,29.20
2019-04-30T23:59:10.593Z,28.15
